createdAt,value
2018-11-04T00:00:19.655Z,72.43
2018-11-04T00:02:48.576Z,72.70
2018-11-04T00:05:16.979Z,72.81
2018-11-04T00:07:45.846Z,73.11
2018-11-04T00:10:13.882Z,72.81
2018-11-04T00:12:42.085Z,72.80
2018-11-04T00:15:13.254Z,72.85
2018-11-04T00:17:44.689Z,72.38
2018-11-04T00:22:51.399Z,72.82
2018-11-04T00:25:19.883Z,72.54
2018-11-04T00:27:48.142Z,73.36
2018-11-04T00:30:16.458Z,73.07
2018-11-04T00:32:44.869Z,73.37
2018-11-04T00:35:12.993Z,72.47
2018-11-04T00:37:41.096Z,72.37
2018-11-04T00:40:09.255Z,72.70
2018-11-04T00:42:37.837Z,72.94
2018-11-04T00:45:07.553Z,72.64
2018-11-04T00:47:35.665Z,72.07
2018-11-04T00:50:03.801Z,72.62
2018-11-04T00:52:32.296Z,72.30
2018-11-04T00:55:00.367Z,72.46
2018-11-04T00:57:28.516Z,71.99
2018-11-04T00:59:56.576Z,72.10
2018-11-04T01:02:24.649Z,71.85
2018-11-04T01:04:52.710Z,72.12
2018-11-04T01:07:20.761Z,71.73
2018-11-04T01:09:48.815Z,71.85
2018-11-04T01:12:16.877Z,72.45
2018-11-04T01:14:44.949Z,72.27
2018-11-04T01:17:13.032Z,71.96
2018-11-04T01:19:41.135Z,72.83
2018-11-04T01:22:09.175Z,72.00
2018-11-04T01:24:37.365Z,72.79
2018-11-04T01:27:05.664Z,72.81
2018-11-04T01:29:33.712Z,72.95
2018-11-04T01:32:01.783Z,72.11
2018-11-04T01:34:29.852Z,72.89
2018-11-04T01:36:57.932Z,72.08
2018-11-04T01:39:26.004Z,72.09
2018-11-04T01:41:54.085Z,72.06
2018-11-04T01:44:22.148Z,72.54
2018-11-04T01:46:50.215Z,71.90
2018-11-04T01:49:18.285Z,72.46
2018-11-04T01:51:46.333Z,72.55
2018-11-04T01:54:14.409Z,72.20
2018-11-04T01:56:42.465Z,73.20
2018-11-04T01:59:10.541Z,72.80
2018-11-04T02:01:38.614Z,73.19
2018-11-04T02:04:06.855Z,73.00
2018-11-04T02:06:34.925Z,72.54
2018-11-04T02:09:03.017Z,72.79
2018-11-04T02:11:31.101Z,73.50
2018-11-04T02:13:59.184Z,72.67
2018-11-04T02:16:27.229Z,72.82
2018-11-04T02:18:55.295Z,72.87
2018-11-04T02:21:23.350Z,73.00
2018-11-04T02:23:51.412Z,73.82
2018-11-04T02:26:19.520Z,74.21
2018-11-04T02:28:47.601Z,74.20
2018-11-04T02:31:15.656Z,73.87
2018-11-04T02:33:43.855Z,72.94
2018-11-04T02:36:12.080Z,73.21
2018-11-04T02:38:40.177Z,73.43
2018-11-04T02:41:08.468Z,73.27
2018-11-04T02:43:36.584Z,72.95
2018-11-04T02:46:05.454Z,73.02
2018-11-04T02:48:33.582Z,73.44
2018-11-04T02:51:01.645Z,72.88
2018-11-04T02:53:29.712Z,72.91
2018-11-04T02:55:58.048Z,72.79
2018-11-04T02:58:26.146Z,72.93
2018-11-04T03:00:54.197Z,73.67
2018-11-04T03:03:22.265Z,73.90
2018-11-04T03:05:50.316Z,73.20
2018-11-04T03:08:18.380Z,73.85
2018-11-04T03:10:46.445Z,73.24
2018-11-04T03:13:14.516Z,73.95
2018-11-04T03:15:42.618Z,73.25
2018-11-04T03:18:10.641Z,73.87
2018-11-04T03:20:38.754Z,73.19
2018-11-04T03:23:07.195Z,73.25
2018-11-04T03:25:35.262Z,73.80
2018-11-04T03:28:03.435Z,73.50
2018-11-04T03:30:31.672Z,74.00
2018-11-04T03:32:59.741Z,73.63
2018-11-04T03:35:27.812Z,73.51
2018-11-04T03:37:55.908Z,73.79
2018-11-04T03:40:23.977Z,73.52
2018-11-04T03:42:52.059Z,73.64
2018-11-04T03:45:20.104Z,73.58
2018-11-04T03:47:48.218Z,73.80
2018-11-04T03:50:16.276Z,73.89
2018-11-04T03:52:44.343Z,73.94
2018-11-04T03:55:12.422Z,74.49
2018-11-04T03:57:40.749Z,74.71
2018-11-04T04:00:11.082Z,75.00
2018-11-04T04:02:39.410Z,74.88
2018-11-04T04:05:08.375Z,74.82
2018-11-04T04:07:36.443Z,75.35
2018-11-04T04:10:05.328Z,74.78
2018-11-04T04:12:33.382Z,74.68
2018-11-04T04:15:01.430Z,75.50
2018-11-04T04:17:29.480Z,75.48
2018-11-04T04:19:57.599Z,75.15
2018-11-04T04:22:25.677Z,75.40
2018-11-04T04:24:53.750Z,75.51
2018-11-04T04:27:21.844Z,75.23
2018-11-04T04:29:49.921Z,74.38
2018-11-04T04:32:17.977Z,74.80
2018-11-04T04:34:46.061Z,74.80
2018-11-04T04:37:14.120Z,75.19
2018-11-04T04:39:42.180Z,75.46
2018-11-04T04:42:10.258Z,75.33
2018-11-04T04:44:38.304Z,75.21
2018-11-04T04:47:06.384Z,75.20
2018-11-04T04:49:34.444Z,75.07
2018-11-04T04:52:02.631Z,75.67
2018-11-04T04:54:31.083Z,75.35
2018-11-04T04:56:59.460Z,75.87
2018-11-04T04:59:27.564Z,75.90
2018-11-04T05:01:55.775Z,75.11
2018-11-04T05:04:24.264Z,75.75
2018-11-04T05:06:52.353Z,75.16
2018-11-04T05:09:20.458Z,75.69
2018-11-04T05:11:48.544Z,75.38
2018-11-04T05:14:16.615Z,75.54
2018-11-04T05:16:44.717Z,75.31
2018-11-04T05:19:12.805Z,75.41
2018-11-04T05:21:40.876Z,74.70
2018-11-04T05:24:08.962Z,74.58
2018-11-04T05:26:37.020Z,75.17
2018-11-04T05:29:05.086Z,75.04
2018-11-04T05:31:33.164Z,74.62
2018-11-04T05:34:01.236Z,74.34
2018-11-04T05:36:29.308Z,74.92
2018-11-04T05:38:57.368Z,74.71
2018-11-04T05:41:25.449Z,74.08
2018-11-04T05:43:53.523Z,74.55
2018-11-04T05:46:21.594Z,74.44
2018-11-04T05:48:49.670Z,74.63
2018-11-04T05:51:17.740Z,73.91
2018-11-04T05:53:45.796Z,74.27
2018-11-04T05:56:13.860Z,74.66
2018-11-04T05:58:41.928Z,73.71
2018-11-04T06:01:10.041Z,73.88
2018-11-04T06:03:38.108Z,74.27
2018-11-04T06:06:06.184Z,74.63
2018-11-04T06:08:34.289Z,74.55
2018-11-04T06:11:02.376Z,74.63
2018-11-04T06:13:30.445Z,74.69
2018-11-04T06:15:58.532Z,75.03
2018-11-04T06:18:26.616Z,74.76
2018-11-04T06:20:54.697Z,74.67
2018-11-04T06:23:22.768Z,74.08
2018-11-04T06:25:50.808Z,74.12
2018-11-04T06:28:18.880Z,73.80
2018-11-04T06:30:46.949Z,74.43
2018-11-04T06:33:15.032Z,74.24
2018-11-04T06:35:43.118Z,73.68
2018-11-04T06:38:11.202Z,74.26
2018-11-04T06:40:39.272Z,74.89
2018-11-04T06:43:07.360Z,75.20
2018-11-04T06:45:35.448Z,74.72
2018-11-04T06:48:03.549Z,75.39
2018-11-04T06:50:31.613Z,75.32
2018-11-04T06:52:59.978Z,75.17
2018-11-04T06:55:28.056Z,76.14
2018-11-04T06:57:56.150Z,76.17
2018-11-04T07:00:24.272Z,76.81
2018-11-04T07:02:52.631Z,76.61
2018-11-04T07:05:20.725Z,76.85
2018-11-04T07:07:49.206Z,76.64
2018-11-04T07:10:17.311Z,77.11
2018-11-04T07:12:45.390Z,78.14
2018-11-04T07:15:13.472Z,78.51
2018-11-04T07:17:41.511Z,78.71
2018-11-04T07:20:09.833Z,78.49
2018-11-04T07:22:38.292Z,78.78
2018-11-04T07:25:06.640Z,79.38
2018-11-04T07:27:34.708Z,79.08
2018-11-04T07:30:02.771Z,79.99
2018-11-04T07:32:30.844Z,79.48
2018-11-04T07:34:58.912Z,79.87
2018-11-04T07:37:27.018Z,80.55
2018-11-04T07:39:55.092Z,80.23
2018-11-04T07:42:23.144Z,80.39
2018-11-04T07:44:51.208Z,80.56
2018-11-04T07:47:19.279Z,79.77
2018-11-04T07:49:47.332Z,79.99
2018-11-04T07:52:15.400Z,80.30
2018-11-04T07:54:43.542Z,79.79
2018-11-04T07:57:11.541Z,80.60
2018-11-04T07:59:39.621Z,80.00
2018-11-04T08:02:07.667Z,79.74
2018-11-04T08:04:35.752Z,80.29
2018-11-04T08:07:03.900Z,79.50
2018-11-04T08:09:31.990Z,80.08
2018-11-04T08:12:00.128Z,79.52
2018-11-04T08:14:28.200Z,79.62
2018-11-04T08:16:56.255Z,80.19
2018-11-04T08:19:24.312Z,79.30
2018-11-04T08:21:52.380Z,79.50
2018-11-04T08:24:20.455Z,79.14
2018-11-04T08:26:48.522Z,79.10
2018-11-04T08:29:16.576Z,79.46
2018-11-04T08:31:44.628Z,79.59
2018-11-04T08:34:12.696Z,79.87
2018-11-04T08:36:40.995Z,78.82
2018-11-04T08:39:09.689Z,79.54
2018-11-04T08:41:37.955Z,78.80
2018-11-04T08:44:06.024Z,79.62
2018-11-04T08:46:34.105Z,79.04
2018-11-04T08:49:02.229Z,78.70
2018-11-04T08:51:30.308Z,79.02
2018-11-04T08:53:58.376Z,79.14
2018-11-04T08:56:26.452Z,79.06
2018-11-04T08:58:54.577Z,79.85
2018-11-04T09:01:22.649Z,79.07
2018-11-04T09:03:50.716Z,79.58
2018-11-04T09:06:18.783Z,79.73
2018-11-04T09:08:46.872Z,79.58
2018-11-04T09:11:14.944Z,79.58
2018-11-04T09:13:43.020Z,80.15
2018-11-04T09:16:11.069Z,80.12
2018-11-04T09:18:39.116Z,79.33
2018-11-04T09:21:07.388Z,79.92
2018-11-04T09:23:35.525Z,79.48
2018-11-04T09:26:03.592Z,80.04
2018-11-04T09:28:31.703Z,79.54
2018-11-04T09:30:59.766Z,79.43
2018-11-04T09:33:27.892Z,79.54
2018-11-04T09:35:56.384Z,79.61
2018-11-04T09:38:24.181Z,79.59
2018-11-04T09:40:52.248Z,79.31
2018-11-04T09:43:20.320Z,79.43
2018-11-04T09:45:48.382Z,79.93
2018-11-04T09:48:16.488Z,79.10
2018-11-04T09:50:44.580Z,79.56
2018-11-04T09:53:12.652Z,78.80
2018-11-04T09:55:41.299Z,79.48
2018-11-04T09:58:09.428Z,79.14
2018-11-04T10:00:37.560Z,79.23
2018-11-04T10:03:05.636Z,79.29
2018-11-04T10:05:33.768Z,79.26
2018-11-04T10:08:01.884Z,78.88
2018-11-04T10:10:29.963Z,78.95
2018-11-04T10:12:58.053Z,79.19
2018-11-04T10:15:26.230Z,79.53
2018-11-04T10:17:54.322Z,79.00
2018-11-04T10:20:22.699Z,79.16
2018-11-04T10:22:50.537Z,79.02
2018-11-04T10:25:18.641Z,78.89
2018-11-04T10:27:46.754Z,79.07
2018-11-04T10:30:16.301Z,78.73
2018-11-04T10:32:44.356Z,78.44
2018-11-04T10:35:12.453Z,79.15
2018-11-04T10:37:41.341Z,78.27
2018-11-04T10:40:10.444Z,78.28
2018-11-04T10:42:38.529Z,78.43
2018-11-04T10:45:07.868Z,78.84
2018-11-04T10:47:35.935Z,78.21
2018-11-04T10:50:04.225Z,78.00
2018-11-04T10:52:32.197Z,78.03
2018-11-04T10:55:00.457Z,78.06
2018-11-04T10:57:29.021Z,77.79
2018-11-04T10:59:57.186Z,77.80
2018-11-04T11:02:25.254Z,77.59
2018-11-04T11:04:53.526Z,77.76
2018-11-04T11:07:22.165Z,77.78
2018-11-04T11:09:50.516Z,77.52
2018-11-04T11:12:18.924Z,77.09
2018-11-04T11:14:47.020Z,77.23
2018-11-04T11:17:15.112Z,76.82
2018-11-04T11:19:43.339Z,76.81
2018-11-04T11:22:11.420Z,76.98
2018-11-04T11:24:39.546Z,76.88
2018-11-04T11:27:07.952Z,76.62
2018-11-04T11:29:36.302Z,77.02
2018-11-04T11:32:06.394Z,76.00
2018-11-04T11:34:34.776Z,75.99
2018-11-04T11:37:02.861Z,76.28
2018-11-04T11:39:31.436Z,76.28
2018-11-04T11:41:59.914Z,76.07
2018-11-04T11:44:28.090Z,76.02
2018-11-04T11:46:56.293Z,75.47
2018-11-04T11:49:24.361Z,75.99
2018-11-04T11:51:52.453Z,76.05
2018-11-04T11:54:20.772Z,75.90
2018-11-04T11:56:48.863Z,75.51
2018-11-04T11:59:17.401Z,75.94
2018-11-04T12:01:46.908Z,75.44
2018-11-04T12:04:16.574Z,75.78
2018-11-04T12:06:46.162Z,75.46
2018-11-04T12:09:16.980Z,75.21
2018-11-04T12:11:46.769Z,74.75
2018-11-04T12:14:20.099Z,74.51
2018-11-04T12:16:49.925Z,74.84
2018-11-04T12:19:19.000Z,75.10
2018-11-04T12:21:49.622Z,74.68
2018-11-04T12:24:17.717Z,74.92
2018-11-04T12:26:50.681Z,74.18
2018-11-04T12:29:27.873Z,73.95
2018-11-04T12:31:56.024Z,73.89
2018-11-04T12:34:24.134Z,73.92
2018-11-04T12:36:52.230Z,74.39
2018-11-04T12:39:20.337Z,74.18
2018-11-04T12:41:48.400Z,73.93
2018-11-04T12:44:16.510Z,74.09
2018-11-04T12:46:44.661Z,74.28
2018-11-04T12:49:13.305Z,74.36
2018-11-04T12:51:41.484Z,73.90
2018-11-04T12:54:09.564Z,73.44
2018-11-04T12:56:37.652Z,73.74
2018-11-04T12:59:05.903Z,73.29
2018-11-04T13:01:34.102Z,73.78
2018-11-04T13:04:02.544Z,74.02
2018-11-04T13:06:30.629Z,73.23
2018-11-04T13:08:58.713Z,73.56
2018-11-04T13:11:26.964Z,74.05
2018-11-04T13:13:54.992Z,73.53
2018-11-04T13:16:23.099Z,73.98
2018-11-04T13:18:51.205Z,73.70
2018-11-04T13:21:19.404Z,73.85
2018-11-04T13:23:47.477Z,74.10
2018-11-04T13:26:15.580Z,73.69
2018-11-04T13:28:43.781Z,73.51
2018-11-04T13:31:11.849Z,73.83
2018-11-04T13:33:39.930Z,74.39
2018-11-04T13:36:08.349Z,73.90
2018-11-04T13:38:36.423Z,74.42
2018-11-04T13:41:04.588Z,78.58
2018-11-04T13:43:32.667Z,77.18
2018-11-04T13:46:00.724Z,76.78
2018-11-04T13:48:28.792Z,75.41
2018-11-04T13:50:56.920Z,74.72
2018-11-04T13:53:25.000Z,74.85
2018-11-04T13:55:53.063Z,73.44
2018-11-04T13:58:21.209Z,73.23
2018-11-04T14:00:49.272Z,72.62
2018-11-04T14:03:17.386Z,73.34
2018-11-04T14:05:45.432Z,74.11
2018-11-04T14:08:13.492Z,71.93
2018-11-04T14:10:41.620Z,71.29
2018-11-04T14:13:09.749Z,71.07
2018-11-04T14:15:37.864Z,70.80
2018-11-04T14:18:05.992Z,71.69
2018-11-04T14:20:34.105Z,71.82
2018-11-04T14:23:02.202Z,71.88
2018-11-04T14:25:30.293Z,71.89
2018-11-04T14:27:58.400Z,71.72
2018-11-04T14:30:26.468Z,71.44
2018-11-04T14:32:54.583Z,72.13
2018-11-04T14:35:22.695Z,72.07
2018-11-04T14:37:50.795Z,72.25
2018-11-04T14:40:18.897Z,72.23
2018-11-04T14:42:46.984Z,71.90
2018-11-04T14:45:15.090Z,72.60
2018-11-04T14:47:43.148Z,72.26
2018-11-04T14:50:13.736Z,72.53
2018-11-04T14:52:41.835Z,72.34
2018-11-04T14:55:09.916Z,72.07
2018-11-04T14:57:38.160Z,72.79
2018-11-04T15:00:08.784Z,72.75
2018-11-04T15:02:36.923Z,72.77
2018-11-04T15:05:05.842Z,73.36
2018-11-04T15:07:34.014Z,73.27
2018-11-04T15:10:02.000Z,73.39
2018-11-04T15:12:30.143Z,73.02
2018-11-04T15:14:58.224Z,73.41
2018-11-04T15:17:26.289Z,73.11
2018-11-04T15:19:54.599Z,74.19
2018-11-04T15:22:22.728Z,73.85
2018-11-04T15:24:50.886Z,74.05
2018-11-04T15:27:19.056Z,73.90
2018-11-04T15:29:47.169Z,73.66
2018-11-04T15:32:15.433Z,73.57
2018-11-04T15:34:43.822Z,74.58
2018-11-04T15:37:11.678Z,74.10
2018-11-04T15:39:39.788Z,73.91
2018-11-04T15:42:07.878Z,74.13
2018-11-04T15:44:36.017Z,74.19
2018-11-04T15:47:04.104Z,74.81
2018-11-04T15:49:32.208Z,74.73
2018-11-04T15:52:00.288Z,74.52
2018-11-04T15:54:28.377Z,74.61
2018-11-04T15:57:00.709Z,74.20
2018-11-04T15:59:28.782Z,74.78
2018-11-04T16:01:56.856Z,74.45
2018-11-04T16:04:24.985Z,74.88
2018-11-04T16:06:53.096Z,74.19
2018-11-04T16:09:21.294Z,74.23
2018-11-04T16:11:49.415Z,74.69
2018-11-04T16:14:17.516Z,74.45
2018-11-04T16:16:45.614Z,74.42
2018-11-04T16:19:13.753Z,74.71
2018-11-04T16:21:41.885Z,74.72
2018-11-04T16:24:09.961Z,74.33
2018-11-04T16:26:38.072Z,75.06
2018-11-04T16:29:06.184Z,74.86
2018-11-04T16:31:34.313Z,74.49
2018-11-04T16:34:02.438Z,74.45
2018-11-04T16:36:30.530Z,74.45
2018-11-04T16:38:58.634Z,74.90
2018-11-04T16:41:26.732Z,75.25
2018-11-04T16:43:54.950Z,74.83
2018-11-04T16:46:22.976Z,75.45
2018-11-04T16:48:51.100Z,74.92
2018-11-04T16:51:19.225Z,74.92
2018-11-04T16:53:47.356Z,74.90
2018-11-04T16:56:15.599Z,75.71
2018-11-04T16:58:43.576Z,75.65
2018-11-04T17:01:11.677Z,75.87
2018-11-04T17:03:39.772Z,75.27
2018-11-04T17:06:07.880Z,75.85
2018-11-04T17:08:35.960Z,75.88
2018-11-04T17:11:04.042Z,76.11
2018-11-04T17:13:32.145Z,75.81
2018-11-04T17:16:00.276Z,75.71
2018-11-04T17:18:28.445Z,75.78
2018-11-04T17:20:56.574Z,76.40
2018-11-04T17:23:24.671Z,76.54
2018-11-04T17:25:52.816Z,76.54
2018-11-04T17:28:20.985Z,76.66
2018-11-04T17:30:49.134Z,76.61
2018-11-04T17:33:17.296Z,76.72
2018-11-04T17:35:45.413Z,76.39
2018-11-04T17:38:13.435Z,76.87
2018-11-04T17:40:41.588Z,76.24
2018-11-04T17:43:09.665Z,76.71
2018-11-04T17:45:37.775Z,76.77
2018-11-04T17:48:05.846Z,77.02
2018-11-04T17:50:33.917Z,77.20
2018-11-04T17:53:01.975Z,77.25
2018-11-04T17:55:30.067Z,77.11
2018-11-04T17:57:58.134Z,77.34
2018-11-04T18:00:26.205Z,78.97
2018-11-04T18:02:54.267Z,78.00
2018-11-04T18:05:22.328Z,77.91
2018-11-04T18:07:50.428Z,79.63
2018-11-04T18:10:18.533Z,78.18
2018-11-04T18:12:46.600Z,78.24
2018-11-04T18:15:15.118Z,81.13
2018-11-04T18:17:43.184Z,82.36
2018-11-04T18:20:11.888Z,79.62
2018-11-04T18:22:39.968Z,78.95
2018-11-04T18:25:08.860Z,77.25
2018-11-04T18:27:36.974Z,77.57
2018-11-04T18:30:06.506Z,77.35
2018-11-04T18:32:34.593Z,77.69
2018-11-04T18:35:02.691Z,77.55
2018-11-04T18:37:30.756Z,77.76
2018-11-04T18:39:59.273Z,77.48
2018-11-04T18:42:27.392Z,77.44
2018-11-04T18:44:55.482Z,77.57
2018-11-04T18:47:23.536Z,77.07
2018-11-04T18:49:51.619Z,77.95
2018-11-04T18:52:19.774Z,77.97
2018-11-04T18:54:47.820Z,77.80
2018-11-04T18:57:15.901Z,77.84
2018-11-04T18:59:43.961Z,77.56
2018-11-04T19:02:12.050Z,77.94
2018-11-04T19:04:40.116Z,77.43
2018-11-04T19:07:08.489Z,77.11
2018-11-04T19:09:36.556Z,77.45
2018-11-04T19:12:04.945Z,77.68
2018-11-04T19:14:33.005Z,77.84
2018-11-04T19:17:01.109Z,78.31
2018-11-04T19:19:29.277Z,77.59
2018-11-04T19:21:57.345Z,78.23
2018-11-04T19:24:25.412Z,78.08
2018-11-04T19:26:53.494Z,78.08
2018-11-04T19:29:21.577Z,78.17
2018-11-04T19:31:50.077Z,77.62
2018-11-04T19:34:18.391Z,78.07
2018-11-04T19:36:46.488Z,78.56
2018-11-04T19:39:14.607Z,78.25
2018-11-04T19:41:43.076Z,78.36
2018-11-04T19:44:11.162Z,77.89
2018-11-04T19:46:39.340Z,78.42
2018-11-04T19:49:07.488Z,78.19
2018-11-04T19:51:35.621Z,77.99
2018-11-04T19:54:03.769Z,78.72
2018-11-04T19:56:31.926Z,77.99
2018-11-04T19:59:00.056Z,78.57
2018-11-04T20:01:28.080Z,78.48
2018-11-04T20:03:56.152Z,79.18
2018-11-04T20:06:24.268Z,78.56
2018-11-04T20:08:57.736Z,78.80
2018-11-04T20:11:26.143Z,78.90
2018-11-04T20:13:59.591Z,78.43
2018-11-04T20:16:28.041Z,78.87
2018-11-04T20:19:01.574Z,78.42
2018-11-04T20:21:29.656Z,78.86
2018-11-04T20:23:57.736Z,79.31
2018-11-04T20:26:25.851Z,78.77
2018-11-04T20:28:53.935Z,79.28
2018-11-04T20:31:27.524Z,79.28
2018-11-04T20:33:55.670Z,79.16
2018-11-04T20:36:23.665Z,79.37
2018-11-04T20:38:57.200Z,79.06
2018-11-04T20:41:29.213Z,78.97
2018-11-04T20:43:57.316Z,79.22
2018-11-04T20:46:25.396Z,79.46
2018-11-04T20:48:58.921Z,79.26
2018-11-04T20:51:27.061Z,79.68
2018-11-04T20:53:55.089Z,79.20
2018-11-04T20:56:28.733Z,79.65
2018-11-04T20:58:56.787Z,79.48
2018-11-04T21:01:24.960Z,79.79
2018-11-04T21:03:53.215Z,79.16
2018-11-04T21:06:21.207Z,79.29
2018-11-04T21:08:49.334Z,79.41
2018-11-04T21:11:17.443Z,79.37
2018-11-04T21:13:45.534Z,79.70
2018-11-04T21:16:13.800Z,79.99
2018-11-04T21:18:41.760Z,79.65
2018-11-04T21:21:09.908Z,79.18
2018-11-04T21:23:38.096Z,79.24
2018-11-04T21:26:06.271Z,79.77
2018-11-04T21:28:34.683Z,79.15
2018-11-04T21:31:02.659Z,78.97
2018-11-04T21:33:30.905Z,79.05
2018-11-04T21:35:59.125Z,79.27
2018-11-04T21:38:27.393Z,79.68
2018-11-04T21:40:55.610Z,79.29
2018-11-04T21:43:24.043Z,79.43
2018-11-04T21:45:52.033Z,79.44
2018-11-04T21:48:20.236Z,79.70
2018-11-04T21:50:48.767Z,79.43
2018-11-04T21:53:17.082Z,80.03
2018-11-04T21:55:45.370Z,79.48
2018-11-04T21:58:14.781Z,80.03
2018-11-04T22:00:42.960Z,79.34
2018-11-04T22:03:11.490Z,80.10
2018-11-04T22:05:39.367Z,79.64
2018-11-04T22:08:07.488Z,80.02
2018-11-04T22:10:35.664Z,79.85
2018-11-04T22:13:03.808Z,79.38
2018-11-04T22:15:32.088Z,79.60
2018-11-04T22:18:00.951Z,79.82
2018-11-04T22:20:29.040Z,80.24
2018-11-04T22:22:57.103Z,80.08
2018-11-04T22:25:25.177Z,79.95
2018-11-04T22:27:53.408Z,80.27
2018-11-04T22:30:21.562Z,80.04
2018-11-04T22:32:49.634Z,79.44
2018-11-04T22:35:17.851Z,79.74
2018-11-04T22:37:45.924Z,79.44
2018-11-04T22:40:14.408Z,79.63
2018-11-04T22:42:42.899Z,80.18
2018-11-04T22:45:12.038Z,80.06
2018-11-04T22:47:40.709Z,79.71
2018-11-04T22:50:10.714Z,79.61
2018-11-04T22:52:39.173Z,80.33
2018-11-04T22:55:07.301Z,79.90
2018-11-04T22:57:35.416Z,79.86
2018-11-04T23:00:03.620Z,80.10
2018-11-04T23:02:31.693Z,80.01
2018-11-04T23:05:05.106Z,80.36
2018-11-04T23:07:41.936Z,80.65
2018-11-04T23:10:10.008Z,80.18
2018-11-04T23:12:38.076Z,79.68
2018-11-04T23:15:06.404Z,80.14
2018-11-04T23:17:34.565Z,80.43
2018-11-04T23:20:02.806Z,80.05
2018-11-04T23:22:30.885Z,79.92
2018-11-04T23:24:58.944Z,80.63
2018-11-04T23:27:27.041Z,80.11
2018-11-04T23:29:55.120Z,79.94
2018-11-04T23:32:23.176Z,80.35
2018-11-04T23:34:51.248Z,80.81
2018-11-04T23:37:19.316Z,79.96
2018-11-04T23:39:47.388Z,80.61
2018-11-04T23:42:15.452Z,79.97
2018-11-04T23:44:43.569Z,80.68
2018-11-04T23:47:11.628Z,80.07
2018-11-04T23:49:39.785Z,80.20
2018-11-04T23:52:07.831Z,80.58
2018-11-04T23:54:35.904Z,79.94
2018-11-04T23:57:03.980Z,79.79
2018-11-04T23:59:32.048Z,80.14
